createdAt,value
2023-06-08T00:04:42.149Z,97.28
2023-06-08T00:09:45.743Z,97.66
2023-06-08T00:14:47.768Z,97.82
2023-06-08T00:19:49.405Z,97.65
2023-06-08T00:24:51.142Z,97.82
2023-06-08T00:29:53.393Z,98.44
2023-06-08T00:34:55.492Z,98.40
2023-06-08T00:39:58.865Z,98.09
2023-06-08T00:45:00.476Z,98.68
2023-06-08T00:50:04.003Z,98.72
2023-06-08T00:55:07.348Z,98.80
2023-06-08T01:00:12.566Z,98.53
2023-06-08T01:05:17.382Z,98.84
2023-06-08T01:10:30.535Z,99.07
2023-06-08T01:15:43.705Z,98.89
2023-06-08T01:21:08.862Z,99.01
2023-06-08T01:26:11.412Z,98.67
2023-06-08T01:31:13.240Z,99.04
2023-06-08T01:36:23.029Z,98.63
2023-06-08T01:41:29.061Z,98.88
2023-06-08T01:46:32.168Z,98.56
2023-06-08T01:51:34.756Z,99.04
2023-06-08T01:56:37.282Z,98.92
2023-06-08T02:01:39.171Z,98.99
2023-06-08T02:06:40.944Z,98.64
2023-06-08T02:11:42.823Z,98.80
2023-06-08T02:16:46.806Z,98.29
2023-06-08T02:21:48.644Z,98.33
2023-06-08T02:26:56.046Z,98.68
2023-06-08T02:31:57.806Z,98.79
2023-06-08T02:36:59.559Z,99.11
2023-06-08T02:42:01.337Z,98.95
2023-06-08T02:47:03.455Z,99.20
2023-06-08T02:52:05.664Z,98.87
2023-06-08T02:57:07.870Z,99.10
2023-06-08T03:02:18.664Z,99.16
2023-06-08T03:07:20.816Z,99.14
2023-06-08T03:12:31.244Z,99.33
2023-06-08T03:17:34.627Z,99.18
2023-06-08T03:22:37.606Z,99.03
2023-06-08T03:27:43.790Z,99.11
2023-06-08T03:32:53.118Z,99.47
2023-06-08T03:38:02.450Z,99.21
2023-06-08T03:43:05.513Z,99.85
2023-06-08T03:48:07.298Z,99.68
2023-06-08T03:53:12.582Z,100.00
2023-06-08T03:58:15.072Z,100.00
2023-06-08T04:03:18.811Z,100.00
2023-06-08T04:08:22.985Z,100.00
2023-06-08T04:13:26.476Z,99.83
2023-06-08T04:18:28.117Z,99.79
2023-06-08T04:23:30.354Z,99.46
2023-06-08T04:28:33.418Z,99.64
2023-06-08T04:33:35.714Z,99.53
2023-06-08T04:38:42.332Z,99.91
2023-06-08T04:43:45.512Z,100.00
2023-06-08T04:48:49.771Z,100.00
2023-06-08T04:53:52.269Z,100.00
2023-06-08T04:58:53.911Z,100.00
2023-06-08T05:03:55.587Z,99.93
2023-06-08T05:08:57.559Z,100.00
2023-06-08T05:13:59.281Z,100.00
2023-06-08T05:19:00.929Z,100.00
2023-06-08T05:24:02.643Z,100.00
2023-06-08T05:29:04.398Z,100.00
2023-06-08T05:34:06.729Z,100.00
2023-06-08T05:39:08.770Z,100.00
2023-06-08T05:44:10.448Z,100.00
2023-06-08T05:49:12.343Z,100.00
2023-06-08T05:54:14.152Z,100.00
2023-06-08T05:59:15.837Z,100.00
2023-06-08T06:04:31.133Z,100.00
2023-06-08T06:09:38.375Z,100.00
2023-06-08T06:14:41.710Z,100.00
2023-06-08T06:19:43.649Z,100.00
2023-06-08T06:24:45.823Z,100.00
2023-06-08T06:29:47.675Z,100.00
2023-06-08T06:34:49.528Z,99.94
2023-06-08T06:39:51.232Z,99.01
2023-06-08T06:44:52.843Z,98.88
2023-06-08T06:49:54.642Z,98.81
2023-06-08T06:54:56.798Z,98.22
2023-06-08T06:59:59.511Z,97.75
2023-06-08T07:05:05.616Z,97.42
2023-06-08T07:10:07.770Z,96.91
2023-06-08T07:15:10.166Z,97.11
2023-06-08T07:20:11.907Z,97.58
2023-06-08T07:25:48.129Z,98.70
2023-06-08T07:30:37.067Z,97.30
2023-06-08T07:35:40.110Z,96.93
2023-06-08T07:40:41.717Z,97.93
2023-06-08T07:45:43.660Z,97.98
2023-06-08T07:50:45.376Z,97.22
2023-06-08T07:55:47.248Z,96.70
2023-06-08T08:00:49.127Z,96.99
2023-06-08T08:05:51.164Z,95.68
2023-06-08T08:10:52.887Z,95.94
2023-06-08T08:15:54.574Z,95.40
2023-06-08T08:20:56.227Z,94.60
2023-06-08T08:25:58.122Z,91.91
2023-06-08T08:31:00.352Z,90.75
2023-06-08T08:36:03.768Z,87.28
2023-06-08T08:41:07.555Z,88.07
2023-06-08T08:46:12.577Z,85.61
2023-06-08T08:51:20.547Z,86.07
2023-06-08T08:56:32.096Z,83.48
2023-06-08T09:01:34.504Z,84.82
2023-06-08T09:06:36.181Z,83.59
2023-06-08T09:11:56.426Z,80.96
2023-06-08T09:17:02.802Z,82.62
2023-06-08T09:22:05.444Z,80.77
2023-06-08T09:27:07.309Z,79.02
2023-06-08T09:32:13.784Z,79.30
2023-06-08T09:37:15.598Z,77.20
2023-06-08T09:42:17.395Z,77.55
2023-06-08T09:47:26.954Z,76.97
2023-06-08T09:52:33.443Z,75.19
2023-06-08T09:57:37.615Z,70.09
2023-06-08T10:02:46.361Z,74.33
2023-06-08T10:07:52.480Z,71.87
2023-06-08T10:12:57.180Z,70.79
2023-06-08T10:18:00.657Z,72.17
2023-06-08T10:23:03.970Z,73.38
2023-06-08T10:28:10.172Z,70.33
2023-06-08T10:33:17.397Z,70.56
2023-06-08T10:38:19.121Z,67.57
2023-06-08T10:43:49.732Z,68.15
2023-06-08T10:49:02.214Z,69.59
2023-06-08T10:54:04.232Z,70.01
2023-06-08T10:59:06.011Z,68.90
2023-06-08T11:04:08.731Z,68.79
2023-06-08T11:09:13.949Z,69.57
2023-06-08T11:14:20.136Z,67.43
2023-06-08T11:19:23.629Z,66.55
2023-06-08T11:24:28.950Z,70.26
2023-06-08T11:29:30.727Z,65.76
2023-06-08T11:34:33.329Z,66.18
2023-06-08T11:39:42.389Z,66.58
2023-06-08T11:44:43.909Z,68.12
2023-06-08T11:49:55.363Z,66.79
2023-06-08T11:55:00.489Z,68.47
2023-06-08T12:00:10.406Z,66.75
2023-06-08T12:05:20.915Z,68.35
2023-06-08T12:10:31.726Z,65.00
2023-06-08T12:15:41.014Z,69.92
2023-06-08T12:20:44.393Z,68.46
2023-06-08T12:25:46.058Z,68.38
2023-06-08T12:30:48.130Z,66.62
2023-06-08T12:35:51.245Z,68.35
2023-06-08T12:40:55.044Z,66.04
2023-06-08T12:45:56.720Z,66.65
2023-06-08T12:50:58.862Z,65.48
2023-06-08T12:56:00.763Z,66.67
2023-06-08T13:01:02.528Z,66.35
2023-06-08T13:06:04.613Z,66.75
2023-06-08T13:11:06.416Z,67.25
2023-06-08T13:16:08.626Z,66.38
2023-06-08T13:21:10.325Z,67.41
2023-06-08T13:26:12.708Z,68.59
2023-06-08T13:31:14.831Z,71.68
2023-06-08T13:36:16.601Z,82.58
2023-06-08T13:41:19.246Z,85.13
2023-06-08T13:46:21.204Z,88.22
2023-06-08T13:51:22.940Z,92.80
2023-06-08T13:56:24.594Z,95.83
2023-06-08T14:01:27.203Z,92.38
2023-06-08T14:06:28.838Z,92.48
2023-06-08T14:11:30.584Z,92.04
2023-06-08T14:16:32.638Z,93.52
2023-06-08T14:21:34.786Z,91.75
2023-06-08T14:26:36.537Z,89.36
2023-06-08T14:31:38.462Z,88.44
2023-06-08T14:36:40.121Z,86.92
2023-06-08T14:41:41.830Z,87.93
2023-06-08T14:46:43.526Z,88.11
2023-06-08T14:51:45.435Z,88.02
2023-06-08T14:56:47.489Z,88.29
2023-06-08T15:01:49.155Z,88.38
2023-06-08T15:06:51.007Z,88.40
2023-06-08T15:11:53.232Z,88.19
2023-06-08T15:16:55.145Z,87.68
2023-06-08T15:21:56.822Z,88.32
2023-06-08T15:26:58.576Z,89.34
2023-06-08T15:32:00.859Z,89.52
2023-06-08T15:37:02.683Z,88.36
2023-06-08T15:42:04.917Z,88.94
2023-06-08T15:47:06.902Z,92.80
2023-06-08T15:52:08.843Z,92.38
2023-06-08T15:57:12.376Z,91.73
2023-06-08T16:02:14.253Z,91.79
2023-06-08T16:07:15.959Z,91.56
2023-06-08T16:12:17.643Z,91.39
2023-06-08T16:17:19.363Z,93.98
2023-06-08T16:22:21.088Z,93.44
2023-06-08T16:27:22.895Z,93.45
2023-06-08T16:32:24.668Z,93.15
2023-06-08T16:37:26.405Z,92.92
2023-06-08T16:42:28.154Z,93.79
2023-06-08T16:47:29.809Z,93.51
2023-06-08T16:52:33.354Z,93.76
2023-06-08T16:57:35.304Z,93.97
2023-06-08T17:02:37.595Z,93.79
2023-06-08T17:07:39.994Z,93.65
2023-06-08T17:12:41.644Z,93.72
2023-06-08T17:17:43.410Z,93.34
2023-06-08T17:22:45.126Z,93.62
2023-06-08T17:27:46.979Z,93.39
2023-06-08T17:32:48.757Z,93.33
2023-06-08T17:37:50.737Z,93.46
2023-06-08T17:42:52.402Z,93.60
2023-06-08T17:47:57.644Z,93.62
2023-06-08T17:53:08.183Z,94.05
2023-06-08T17:58:10.194Z,93.94
2023-06-08T18:03:12.025Z,94.30
2023-06-08T18:08:13.789Z,94.12
2023-06-08T18:13:16.874Z,94.14
2023-06-08T18:18:18.579Z,94.82
2023-06-08T18:23:21.022Z,94.39
2023-06-08T18:28:22.725Z,94.25
2023-06-08T18:33:24.391Z,93.95
2023-06-08T18:38:26.202Z,94.46
2023-06-08T18:43:28.005Z,94.21
2023-06-08T18:48:29.674Z,93.96
2023-06-08T18:53:31.278Z,94.19
2023-06-08T18:58:32.940Z,94.31
2023-06-08T19:03:36.335Z,94.27
2023-06-08T19:08:38.113Z,94.49
2023-06-08T19:13:42.775Z,94.07
2023-06-08T19:18:45.208Z,94.16
2023-06-08T19:23:47.170Z,94.14
2023-06-08T19:28:49.109Z,94.57
2023-06-08T19:33:50.745Z,94.67
2023-06-08T19:38:54.483Z,94.52
2023-06-08T19:43:56.220Z,94.75
2023-06-08T19:48:58.014Z,94.98
2023-06-08T19:53:59.663Z,95.27
2023-06-08T19:59:01.323Z,95.46
2023-06-08T20:04:04.124Z,95.74
2023-06-08T20:09:07.389Z,95.80
2023-06-08T20:14:09.025Z,96.10
2023-06-08T20:19:11.104Z,94.90
2023-06-08T20:24:12.979Z,95.88
2023-06-08T20:29:16.155Z,95.74
2023-06-08T20:34:17.828Z,96.35
2023-06-08T20:39:22.351Z,96.13
2023-06-08T20:44:24.904Z,99.03
2023-06-08T20:49:26.618Z,98.19
2023-06-08T20:54:28.227Z,98.21
2023-06-08T20:59:30.250Z,98.04
2023-06-08T21:04:31.933Z,97.83
2023-06-08T21:09:33.849Z,97.73
2023-06-08T21:14:35.482Z,98.08
2023-06-08T21:19:37.125Z,98.01
2023-06-08T21:24:38.771Z,97.91
2023-06-08T21:29:40.596Z,97.93
2023-06-08T21:34:42.262Z,97.29
2023-06-08T21:39:44.252Z,97.02
2023-06-08T21:44:45.949Z,97.32
2023-06-08T21:49:47.649Z,97.30
2023-06-08T21:54:49.995Z,97.71
2023-06-08T21:59:51.675Z,97.92
2023-06-08T22:04:53.363Z,97.58
2023-06-08T22:09:55.147Z,97.93
2023-06-08T22:14:57.092Z,97.64
2023-06-08T22:20:07.421Z,97.82
2023-06-08T22:25:11.090Z,97.74
2023-06-08T22:30:13.622Z,98.13
2023-06-08T22:35:15.321Z,98.55
2023-06-08T22:40:16.992Z,98.75
2023-06-08T22:45:19.566Z,98.82
2023-06-08T22:50:23.936Z,98.76
2023-06-08T22:55:30.545Z,99.04
2023-06-08T23:00:40.077Z,99.15
2023-06-08T23:05:41.793Z,99.07
2023-06-08T23:10:44.439Z,99.38
2023-06-08T23:15:47.973Z,98.98
2023-06-08T23:20:53.769Z,99.02
2023-06-08T23:25:55.459Z,99.27
2023-06-08T23:30:57.085Z,99.35
2023-06-08T23:35:59.091Z,99.88
2023-06-08T23:41:02.627Z,99.37
2023-06-08T23:46:04.283Z,99.15
2023-06-08T23:51:06.188Z,98.68
2023-06-08T23:56:07.852Z,99.22
